Darstellungsparameter: Aktuell verwendete Einstellungen:
Skalierung der Graphiken ... ?
xyx+y,   Skalierungsfaktor:      Skalierung: Modus: x, Faktor: 1
Darstellungszeitraum ... ?
Vom - - bis: - -   Zeitraum: 22.01.2021 - 22.01.2021
Min/Max/Avg-Anzeige ... ?
Zeige MMA aktuell
Zeige MMA Monat
Zeige MMA alles
Zeige --A aktuell
Zeige --A Monat
Zeige --A alles
Keine MMA-Anzeige
MMA:
Keine MMA-Graphiken
MMA-Basis: 22.01.2021 - 22.01.2021
Quicknavigation für Darstellung... ?
Tage:      1T, 2T, 3T, 5T -1T -2T -3T -5T +1T +2T +3T +5T
Wochen: 1W, 2W, 3W -1W -2W -3W +1W +2W +3W
Monate: 1M, 3M, 6M -1M -3M -6M +1M +3M +6M
Jahre:    1J, 3J, 5J, 10J -1J -3J -5J -10J +1J +3J +5J +10J
Nutze für die Darstellung ... ?
Originaldaten oder Mittelwerte auf ...
Stundenbasis Tagesbasis Wochenbasis
Monatsbasis Jahresbasis      Datenbasis: Original-Daten
Darstellen als:
Statistik (Auto) Statistik J:M      Darstellung:

Der gewünschte Datumsbereich war nicht gültig/verfügbar und wurde korrigiert....
Das angegebene Enddatum (15.02.2023 23:59:59) liegt in der Zukunft.
Das angegebene Startdatum (15.02.2023 00:00:00) liegt in der Zukunft.


Zur Graphik,    zurück zur Übersicht aller Sensoren.
 
Tabellarische Datenbersicht: ?
 
Sensor: Nr:Datum:Temp:Feuchte:Taupunkt:
Aussen-T/F 1 22-01-2021 01:00:00 10.3 C 84 % 7.72 C
2 22-01-2021 01:05:00 10.3 C 85 % 7.89 C
3 22-01-2021 01:10:00 10.3 C 86 % 8.06 C
4 22-01-2021 01:15:00 10.2 C 86 % 7.97 C
5 22-01-2021 01:20:00 10.1 C 86 % 7.87 C
6 22-01-2021 01:25:00 10 C 86 % 7.77 C
7 22-01-2021 01:30:00 9.9 C 87 % 7.84 C
8 22-01-2021 01:35:00 9.9 C 86 % 7.67 C
9 22-01-2021 01:40:00 10 C 86 % 7.77 C
10 22-01-2021 01:45:00 10.2 C 85 % 7.79 C
11 22-01-2021 01:50:00 10.2 C 87 % 8.14 C
12 22-01-2021 01:55:00 10.1 C 87 % 8.04 C
13 22-01-2021 02:00:00 9.9 C 87 % 7.84 C
14 22-01-2021 02:05:00 9.8 C 87 % 7.74 C
15 22-01-2021 02:10:00 9.6 C 88 % 7.71 C
16 22-01-2021 02:15:00 9.4 C 88 % 7.52 C
17 22-01-2021 02:20:00 9.5 C 88 % 7.61 C
18 22-01-2021 02:25:00 9.5 C 88 % 7.61 C
19 22-01-2021 02:30:00 9.6 C 88 % 7.71 C
20 22-01-2021 02:35:00 9.6 C 87 % 7.55 C
21 22-01-2021 02:40:00 9.7 C 87 % 7.64 C
22 22-01-2021 02:45:00 9.7 C 87 % 7.64 C
23 22-01-2021 02:50:00 9.7 C 87 % 7.64 C
24 22-01-2021 02:55:00 9.7 C 87 % 7.64 C
25 22-01-2021 03:00:00 9.7 C 87 % 7.64 C
Sensor: Nr:Datum:Temp:Feuchte:Taupunkt:
Aussen-T/F 26 22-01-2021 03:05:00 9.8 C 87 % 7.74 C
27 22-01-2021 03:10:00 9.8 C 87 % 7.74 C
28 22-01-2021 03:15:00 9.8 C 87 % 7.74 C
29 22-01-2021 03:20:00 9.8 C 87 % 7.74 C
30 22-01-2021 03:25:00 9.8 C 87 % 7.74 C
31 22-01-2021 03:30:00 9.8 C 87 % 7.74 C
32 22-01-2021 03:35:00 9.8 C 87 % 7.74 C
33 22-01-2021 03:40:00 9.9 C 87 % 7.84 C
34 22-01-2021 03:45:00 10 C 86 % 7.77 C
35 22-01-2021 03:50:00 10.1 C 86 % 7.87 C
36 22-01-2021 03:55:00 10.1 C 86 % 7.87 C
37 22-01-2021 04:00:00 10.1 C 87 % 8.04 C
38 22-01-2021 04:05:00 10 C 87 % 7.94 C
39 22-01-2021 04:10:00 10 C 87 % 7.94 C
40 22-01-2021 04:15:00 9.9 C 87 % 7.84 C
41 22-01-2021 04:20:00 10 C 87 % 7.94 C
42 22-01-2021 04:25:00 10.1 C 87 % 8.04 C
43 22-01-2021 04:30:00 10.1 C 87 % 8.04 C
44 22-01-2021 04:35:00 10.1 C 87 % 8.04 C
45 22-01-2021 04:40:00 10.1 C 86 % 7.87 C
46 22-01-2021 04:45:00 10.1 C 86 % 7.87 C
47 22-01-2021 04:50:00 10.2 C 86 % 7.97 C
48 22-01-2021 04:55:00 10.2 C 86 % 7.97 C
49 22-01-2021 05:00:00 10.3 C 86 % 8.06 C
50 22-01-2021 05:05:00 10.2 C 86 % 7.97 C
Sensor: Nr:Datum:Temp:Feuchte:Taupunkt:
Aussen-T/F 51 22-01-2021 05:10:00 10.2 C 87 % 8.14 C
52 22-01-2021 05:15:00 9.6 C 83 % 6.86 C
53 22-01-2021 05:20:00 8.7 C 85 % 6.32 C
54 22-01-2021 05:25:00 8.1 C 87 % 6.07 C
55 22-01-2021 05:30:00 7.6 C 88 % 5.74 C
56 22-01-2021 05:35:00 7.3 C 90 % 5.77 C
57 22-01-2021 05:40:00 7.1 C 90 % 5.57 C
58 22-01-2021 05:45:00 6.9 C 91 % 5.54 C
59 22-01-2021 05:50:00 6.7 C 91 % 5.34 C
60 22-01-2021 05:55:00 6.6 C 91 % 5.24 C
61 22-01-2021 06:00:00 6.6 C 92 % 5.4 C
62 22-01-2021 06:05:00 6.4 C 92 % 5.2 C
63 22-01-2021 06:10:00 6.4 C 92 % 5.2 C
64 22-01-2021 06:15:00 6.2 C 92 % 5 C
65 22-01-2021 06:20:00 6.2 C 93 % 5.15 C
66 22-01-2021 06:25:00 6.1 C 92 % 4.9 C
67 22-01-2021 06:30:00 5.9 C 92 % 4.7 C
68 22-01-2021 06:35:00 5.8 C 92 % 4.6 C
69 22-01-2021 06:40:00 5.8 C 93 % 4.76 C
70 22-01-2021 06:45:00 5.8 C 93 % 4.76 C
71 22-01-2021 06:50:00 5.7 C 93 % 4.66 C
72 22-01-2021 06:55:00 5.7 C 93 % 4.66 C
73 22-01-2021 07:00:00 5.6 C 93 % 4.56 C
74 22-01-2021 07:05:00 5.6 C 93 % 4.56 C
75 22-01-2021 07:10:00 5.4 C 93 % 4.36 C
Sensor: Nr:Datum:Temp:Feuchte:Taupunkt:
Aussen-T/F 76 22-01-2021 07:15:00 5.2 C 93 % 4.16 C
77 22-01-2021 07:20:00 5.1 C 93 % 4.06 C
78 22-01-2021 07:25:00 5 C 93 % 3.96 C
79 22-01-2021 07:30:00 4.9 C 93 % 3.87 C
80 22-01-2021 07:35:00 4.9 C 93 % 3.87 C
81 22-01-2021 07:40:00 4.9 C 93 % 3.87 C
82 22-01-2021 07:45:00 4.9 C 93 % 3.87 C
83 22-01-2021 07:50:00 4.8 C 94 % 3.92 C
84 22-01-2021 07:55:00 4.8 C 94 % 3.92 C
85 22-01-2021 08:00:00 4.8 C 94 % 3.92 C
86 22-01-2021 08:05:00 4.7 C 94 % 3.82 C
87 22-01-2021 08:10:00 4.7 C 94 % 3.82 C
88 22-01-2021 08:15:00 4.7 C 94 % 3.82 C
89 22-01-2021 08:20:00 4.6 C 94 % 3.72 C
90 22-01-2021 08:25:00 4.6 C 94 % 3.72 C
91 22-01-2021 08:30:00 4.6 C 94 % 3.72 C
92 22-01-2021 08:35:00 4.5 C 94 % 3.62 C
93 22-01-2021 08:40:00 4.5 C 94 % 3.62 C
94 22-01-2021 08:45:00 4.4 C 95 % 3.67 C
95 22-01-2021 08:50:00 4.4 C 95 % 3.67 C
96 22-01-2021 08:55:00 4.4 C 95 % 3.67 C
97 22-01-2021 09:00:00 4.4 C 95 % 3.67 C
98 22-01-2021 09:05:00 4.4 C 95 % 3.67 C
99 22-01-2021 09:10:00 4.4 C 95 % 3.67 C
100 22-01-2021 09:15:00 4.4 C 95 % 3.67 C
Sensor: Nr:Datum:Temp:Feuchte:Taupunkt:
Aussen-T/F 101 22-01-2021 09:20:00 4.4 C 95 % 3.67 C
102 22-01-2021 09:25:00 4.4 C 95 % 3.67 C
103 22-01-2021 09:30:00 4.4 C 95 % 3.67 C
104 22-01-2021 09:35:00 4.4 C 95 % 3.67 C
105 22-01-2021 09:40:00 4.4 C 95 % 3.67 C
106 22-01-2021 09:45:00 4.5 C 95 % 3.77 C
107 22-01-2021 09:50:00 4.6 C 95 % 3.87 C
108 22-01-2021 09:55:00 4.6 C 95 % 3.87 C
109 22-01-2021 10:00:00 4.6 C 95 % 3.87 C
110 22-01-2021 10:05:00 4.6 C 95 % 3.87 C
111 22-01-2021 10:10:00 4.7 C 95 % 3.97 C
112 22-01-2021 10:15:00 4.7 C 95 % 3.97 C
113 22-01-2021 10:20:00 4.7 C 95 % 3.97 C
114 22-01-2021 10:25:00 4.7 C 95 % 3.97 C
115 22-01-2021 10:30:00 4.7 C 95 % 3.97 C
116 22-01-2021 10:35:00 4.7 C 95 % 3.97 C
117 22-01-2021 10:40:00 4.7 C 95 % 3.97 C
118 22-01-2021 10:45:00 4.7 C 95 % 3.97 C
119 22-01-2021 10:50:00 4.7 C 95 % 3.97 C
120 22-01-2021 10:55:00 4.7 C 95 % 3.97 C
121 22-01-2021 11:00:00 4.8 C 95 % 4.07 C
122 22-01-2021 11:05:00 4.8 C 95 % 4.07 C
123 22-01-2021 11:10:00 4.8 C 95 % 4.07 C
124 22-01-2021 11:15:00 4.9 C 95 % 4.17 C
125 22-01-2021 11:20:00 4.9 C 95 % 4.17 C
Sensor: Nr:Datum:Temp:Feuchte:Taupunkt:
Aussen-T/F 126 22-01-2021 11:25:00 5.1 C 95 % 4.37 C
127 22-01-2021 11:30:00 5.2 C 96 % 4.62 C
128 22-01-2021 11:35:00 5.2 C 95 % 4.47 C
129 22-01-2021 11:40:00 5.3 C 95 % 4.57 C
130 22-01-2021 11:45:00 5.3 C 95 % 4.57 C
131 22-01-2021 11:50:00 5.3 C 95 % 4.57 C
132 22-01-2021 11:55:00 5.2 C 95 % 4.47 C
133 22-01-2021 12:00:00 5.2 C 95 % 4.47 C
134 22-01-2021 12:05:00 5.3 C 95 % 4.57 C
135 22-01-2021 12:10:00 5.3 C 94 % 4.41 C
136 22-01-2021 12:15:00 5.4 C 94 % 4.51 C
137 22-01-2021 12:20:00 5.5 C 95 % 4.76 C
138 22-01-2021 12:25:00 5.6 C 95 % 4.86 C
139 22-01-2021 12:30:00 5.7 C 94 % 4.81 C
140 22-01-2021 12:35:00 5.6 C 94 % 4.71 C
141 22-01-2021 12:40:00 5.6 C 94 % 4.71 C
142 22-01-2021 12:45:00 5.7 C 94 % 4.81 C
143 22-01-2021 12:50:00 5.7 C 93 % 4.66 C
144 22-01-2021 12:55:00 5.8 C 93 % 4.76 C
145 22-01-2021 13:00:00 5.8 C 93 % 4.76 C
146 22-01-2021 13:05:00 5.9 C 92 % 4.7 C
147 22-01-2021 13:10:00 6 C 92 % 4.8 C
148 22-01-2021 13:15:00 6.1 C 92 % 4.9 C
149 22-01-2021 13:20:00 6.1 C 92 % 4.9 C
150 22-01-2021 13:25:00 6.1 C 91 % 4.74 C
Sensor: Nr:Datum:Temp:Feuchte:Taupunkt:
Aussen-T/F 151 22-01-2021 13:30:00 6.1 C 91 % 4.74 C
152 22-01-2021 13:35:00 5.9 C 90 % 4.39 C
153 22-01-2021 13:40:00 5.9 C 90 % 4.39 C
154 22-01-2021 13:45:00 5.9 C 91 % 4.55 C
155 22-01-2021 13:50:00 5.9 C 91 % 4.55 C
156 22-01-2021 13:55:00 5.9 C 91 % 4.55 C
157 22-01-2021 14:00:00 5.9 C 91 % 4.55 C
158 22-01-2021 14:05:00 5.9 C 91 % 4.55 C
159 22-01-2021 14:10:00 5.9 C 91 % 4.55 C
160 22-01-2021 14:15:00 5.9 C 91 % 4.55 C
161 22-01-2021 14:20:00 6 C 91 % 4.65 C
162 22-01-2021 14:25:00 6.1 C 90 % 4.59 C
163 22-01-2021 14:30:00 6.1 C 90 % 4.59 C
164 22-01-2021 14:35:00 6.1 C 89 % 4.43 C
165 22-01-2021 14:40:00 6.1 C 90 % 4.59 C
166 22-01-2021 14:45:00 6.2 C 89 % 4.53 C
167 22-01-2021 14:50:00 6.2 C 89 % 4.53 C
168 22-01-2021 14:55:00 6.2 C 89 % 4.53 C
169 22-01-2021 15:00:00 6.2 C 89 % 4.53 C
170 22-01-2021 15:05:00 6.2 C 89 % 4.53 C
171 22-01-2021 15:10:00 6.2 C 89 % 4.53 C
172 22-01-2021 15:15:00 6.2 C 89 % 4.53 C
173 22-01-2021 15:20:00 6.2 C 88 % 4.36 C
174 22-01-2021 15:25:00 6.2 C 88 % 4.36 C
175 22-01-2021 15:30:00 6.3 C 89 % 4.62 C
Sensor: Nr:Datum:Temp:Feuchte:Taupunkt:
Aussen-T/F 176 22-01-2021 15:35:00 6.3 C 89 % 4.62 C
177 22-01-2021 15:40:00 6.3 C 89 % 4.62 C
178 22-01-2021 15:45:00 6.3 C 89 % 4.62 C
179 22-01-2021 15:50:00 6.3 C 89 % 4.62 C
180 22-01-2021 15:55:00 6.2 C 89 % 4.53 C
181 22-01-2021 16:00:00 6.2 C 90 % 4.69 C
182 22-01-2021 16:05:00 6.2 C 90 % 4.69 C
183 22-01-2021 16:10:00 6.2 C 90 % 4.69 C
184 22-01-2021 16:15:00 6.1 C 90 % 4.59 C
185 22-01-2021 16:20:00 6.1 C 90 % 4.59 C
186 22-01-2021 16:25:00 5.9 C 90 % 4.39 C
187 22-01-2021 16:30:00 5.8 C 90 % 4.29 C
188 22-01-2021 16:35:00 5.7 C 90 % 4.19 C
189 22-01-2021 16:40:00 5.5 C 91 % 4.15 C
190 22-01-2021 16:45:00 5.3 C 91 % 3.95 C
191 22-01-2021 16:50:00 5.2 C 91 % 3.85 C
192 22-01-2021 16:55:00 5 C 91 % 3.66 C
193 22-01-2021 17:00:00 4.8 C 91 % 3.46 C
194 22-01-2021 17:05:00 4.6 C 91 % 3.26 C

Legende:
   Min
   Max


Maximal/Minimal-Werte vom 22.01.2021 - 22.01.2021

Sensor Min Max Avg
Temp
(Aussen-T/F)
4.4 °C
22-01-2021  08:45:00
10.3 °C
22-01-2021  01:00:00
6.69 °C
Feuchte
(Aussen-T/F)
83 %
22-01-2021  05:15:00
96 %
22-01-2021  11:30:00
90.9 %
Taupunkt
(Aussen-T/F)
3.26 C
22-01-2021  17:05:00
8.14 C
22-01-2021  01:50:00
5.27 C

Die Daten stammen von einer Davis Vantage Pro 2 Wetter-Station und werden unter Linux mit der Software wview2wettercgi und aufbereitet. Alle Angaben erfolgen ohne Gewähr für ihre Vollständigkeit oder Richtigkeit.
Kontakt: Rainer Krienke krienke@uni-koblenz.de . Meine Webseiten an der Uni Koblenz oder privat.
Version: $Revision: 0.78 $